Terminal Aerodrome Forecast
Issued by NWS La Crosse, WI

Home | Current Version | Previous Version | Text Only | Print | Product List | Glossary On
Versions: 1 2 3 4 5 6 7 8 9 10 11 12 13 14 15 16 17 18
000
FTUS43 KARX 241730
TAFRST
TAF
KRST 241730Z 2418/2518 02012KT P6SM VCSH OVC005
     FM242000 02013KT P6SM VCSH OVC007
     FM242300 03014KT 3SM -SHRA OVC007
     FM250400 05013G21KT P6SM OVC003
     FM251100 04014KT P6SM OVC008=

USA.gov is the U.S. government's official web portal to all federal, state and local government web resources and services.